Terminal Aerodrome Forecast
Issued by NWS

Home | Current Version | Previous Version | Text Only | Print | Product List | Glossary On
Versions: 1 2 3 4 5 6 7 8 9 10 11 12 13 14 15 16 17 18 19 20 21 22 23 24 25
000
FTPA31 PHFO 042110 AAA
TAFMDY
TAF AMD
PMDY 042110Z 0421/0518 01010KT P6SM BKN015 BKN045
     FM042200 02011KT P6SM SCT015 BKN045
     FM051200 02014KT P6SM BKN035=

USA.gov is the U.S. government's official web portal to all federal, state and local government web resources and services.